Time;durP1;ratioP1;P1;durP2;ratioP2;P2;SDS_P1;SDS_P2;PMS_P1;PMS_P2;Temp;Humidity;BMP_temperature;BMP_pressure;BME280_temperature;BME280_humidity;BME280_pressure;Samples;Min_cycle;Max_cycle;Signal;HPM_P1;HPM_P2
2022/06/17 00:01:30;;;;;;;;;11.00;10.75;;;;;24.46;36.51;101850.91;6248694;22;45367;-75
2022/06/17 00:03:56;;;;;;;;;11.25;11.25;;;;;24.43;37.10;101846.47;6221227;22;45135;-78
2022/06/17 00:06:24;;;;;;;;;10.75;10.00;;;;;24.41;36.57;101842.97;6247201;22;45342;-75
2022/06/17 00:08:52;;;;;;;;;14.25;13.00;;;;;24.39;37.02;101839.47;6248356;22;45166;-75
2022/06/17 00:11:27;;;;;;;;;13.75;12.00;;;;;24.39;36.61;101841.28;6248443;22;45208;-75
2022/06/17 00:13:53;;;;;;;;;12.00;11.00;;;;;24.37;36.71;101835.09;6248285;22;45330;-75
2022/06/17 00:16:21;;;;;;;;;10.00;10.00;;;;;24.35;37.44;101835.19;6248279;22;46140;-74
2022/06/17 00:18:47;;;;;;;;;13.00;13.00;;;;;24.33;37.15;101833.50;6246490;22;45185;-74
2022/06/17 00:21:28;;;;;;;;;13.50;12.75;;;;;24.31;37.30;101833.56;6270880;22;45331;-75
2022/06/17 00:23:54;;;;;;;;;15.75;12.50;;;;;24.28;36.93;101841.75;6247805;22;45353;-75
2022/06/17 00:26:19;;;;;;;;;13.25;12.00;;;;;24.25;37.28;101835.66;6248091;22;45317;-75
2022/06/17 00:28:45;;;;;;;;;13.75;13.25;;;;;24.20;37.33;101839.41;6248039;22;45243;-75
2022/06/17 00:31:13;;;;;;;;;12.00;11.50;;;;;24.16;37.74;101834.22;6248377;22;45167;-75
2022/06/17 00:33:38;;;;;;;;;16.00;14.25;;;;;24.16;37.36;101834.22;6246179;22;45818;-75
2022/06/17 00:36:06;;;;;;;;;11.75;11.25;;;;;24.13;37.52;101831.66;6247676;22;45243;-75
2022/06/17 00:38:33;;;;;;;;;12.50;12.50;;;;;24.14;38.06;101837.00;6248208;22;45424;-74
2022/06/17 00:41:13;;;;;;;;;15.25;12.75;;;;;24.09;37.74;101846.19;6247928;22;45358;-75
2022/06/17 00:43:40;;;;;;;;;16.75;15.75;;;;;24.07;37.80;101837.31;6247901;22;45177;-76
2022/06/17 00:46:11;;;;;;;;;13.75;13.25;;;;;24.04;38.22;101835.63;6247875;22;46478;-75
2022/06/17 00:48:42;;;;;;;;;12.00;11.25;;;;;24.03;37.99;101836.59;6248320;22;45149;-76
2022/06/17 00:51:22;;;;;;;;;13.25;11.75;;;;;24.03;38.46;101838.38;6247993;22;45377;-76
2022/06/17 00:53:58;;;;;;;;;15.25;14.25;;;;;24.02;38.05;101839.31;6220484;22;46022;-76
2022/06/17 00:56:32;;;;;;;;;12.25;12.25;;;;;23.99;38.30;101843.00;6220239;22;46139;-76
2022/06/17 00:59:10;;;;;;;;;13.25;12.25;;;;;23.95;38.49;101841.38;6248182;22;45169;-76
2022/06/17 01:01:53;;;;;;;;;11.75;11.75;;;;;23.93;38.67;101840.59;6220178;22;45397;-75
2022/06/17 01:04:49;;;;;;;;;13.50;13.50;;;;;23.89;38.33;101841.66;6248319;22;45410;-76
2022/06/17 01:07:24;;;;;;;;;15.00;14.75;;;;;23.87;38.22;101840.81;6247547;22;45373;-76
2022/06/17 01:10:08;;;;;;;;;15.00;12.25;;;;;23.84;38.80;101849.91;6248412;22;45203;-75
2022/06/17 01:12:43;;;;;;;;;14.50;14.50;;;;;23.81;39.17;101850.03;6221068;22;45309;-76
2022/06/17 01:15:14;;;;;;;;;15.75;15.75;;;;;23.80;39.14;101852.81;6248114;22;45204;-75
2022/06/17 01:17:40;;;;;;;;;16.25;15.50;;;;;23.78;38.96;101850.16;6248132;22;46413;-76
2022/06/17 01:20:09;;;;;;;;;11.75;11.75;;;;;23.76;38.82;101852.03;6248026;22;45203;-76
2022/06/17 01:22:51;;;;;;;;;14.25;14.00;;;;;23.74;38.75;101853.94;6220269;22;45239;-76
2022/06/17 01:25:33;;;;;;;;;12.75;12.75;;;;;23.69;38.81;101846.00;6247665;22;45155;-76
2022/06/17 01:28:14;;;;;;;;;10.75;10.50;;;;;23.67;38.79;101850.56;6219937;22;47246;-76
2022/06/17 01:30:47;;;;;;;;;13.00;13.00;;;;;23.64;38.91;101849.84;6247790;22;45421;-76
2022/06/17 01:33:25;;;;;;;;;12.50;12.50;;;;;23.62;39.35;101854.38;6247930;22;45342;-76
2022/06/17 01:35:59;;;;;;;;;12.50;12.50;;;;;23.60;39.20;101850.88;6220336;22;45545;-76
2022/06/17 01:38:27;;;;;;;;;16.25;13.00;;;;;23.57;38.96;101854.56;6247721;22;45423;-76
2022/06/17 01:40:55;;;;;;;;;14.00;12.00;;;;;23.57;38.97;101851.88;6247727;22;45239;-76
2022/06/17 01:43:25;;;;;;;;;13.00;12.00;;;;;23.56;39.54;101852.81;6247913;22;45188;-76
2022/06/17 01:46:00;;;;;;;;;14.50;14.50;;;;;23.52;39.52;101853.88;6247756;22;45308;-76
2022/06/17 01:48:32;;;;;;;;;10.75;10.75;;;;;23.52;39.59;101856.56;6247983;22;45343;-76
2022/06/17 01:51:03;;;;;;;;;14.25;13.25;;;;;23.49;39.09;101865.63;6246848;22;45288;-76
2022/06/17 01:53:33;;;;;;;;;15.50;15.50;;;;;23.47;39.00;101870.22;6247080;22;45383;-76
2022/06/17 01:56:04;;;;;;;;;14.25;12.50;;;;;23.47;39.38;101877.38;6247966;22;45479;-76
2022/06/17 01:58:35;;;;;;;;;9.00;8.75;;;;;23.45;39.36;101871.22;6220541;22;48698;-75
2022/06/17 02:01:03;;;;;;;;;14.00;13.50;;;;;23.41;39.82;101870.44;6220379;22;45190;-76
2022/06/17 02:03:34;;;;;;;;;11.25;11.25;;;;;23.39;39.89;101879.50;6220236;22;45217;-76
2022/06/17 02:06:19;;;;;;;;;12.00;12.00;;;;;23.38;40.19;101892.06;6220101;22;45961;-76
2022/06/17 02:08:45;;;;;;;;;14.75;14.25;;;;;23.36;40.02;101895.75;6247589;22;45170;-76
2022/06/17 02:11:11;;;;;;;;;15.00;14.50;;;;;23.31;39.96;101888.75;6220009;22;45551;-76
2022/06/17 02:13:38;;;;;;;;;12.50;11.75;;;;;23.30;40.11;101884.28;6247822;22;45362;-76
2022/06/17 02:16:06;;;;;;;;;15.00;13.00;;;;;23.30;40.35;101888.78;6246825;22;45438;-76
2022/06/17 02:18:33;;;;;;;;;15.75;13.75;;;;;23.26;40.51;101893.41;6247264;22;45156;-75
2022/06/17 02:21:06;;;;;;;;;13.25;12.75;;;;;23.24;40.94;101897.97;6247071;22;45244;-75
2022/06/17 02:23:33;;;;;;;;;15.25;14.75;;;;;23.22;40.60;101897.16;6245341;22;45197;-76
2022/06/17 02:26:00;;;;;;;;;13.75;12.25;;;;;23.18;40.59;101905.41;6247452;22;45557;-77
2022/06/17 02:28:29;;;;;;;;;13.50;12.00;;;;;23.15;40.51;101901.03;6247155;22;45449;-76
2022/06/17 02:30:56;;;;;;;;;12.00;11.00;;;;;23.09;41.08;101902.13;6246984;22;45298;-76
2022/06/17 02:33:23;;;;;;;;;16.00;14.25;;;;;23.05;40.93;101907.66;6247774;22;45168;-76
2022/06/17 02:36:16;;;;;;;;;16.25;15.50;;;;;23.02;40.96;101905.97;6246985;22;45453;-76
2022/06/17 02:38:42;;;;;;;;;14.25;11.00;;;;;22.99;41.22;101906.09;6219817;22;45986;-76
2022/06/17 02:41:16;;;;;;;;;15.50;14.00;;;;;22.98;41.34;101901.63;6244884;22;45697;-76
2022/06/17 02:43:45;;;;;;;;;16.50;13.50;;;;;22.98;41.47;101907.00;6246807;22;45161;-76
2022/06/17 02:46:20;;;;;;;;;15.25;13.25;;;;;22.94;41.55;101908.03;6246950;22;45551;-75
2022/06/17 02:48:56;;;;;;;;;12.00;11.75;;;;;22.92;41.49;101909.88;6247354;22;45310;-75
2022/06/17 02:51:25;;;;;;;;;17.00;16.25;;;;;22.93;41.72;101914.31;6247057;22;45387;-76
2022/06/17 02:53:51;;;;;;;;;14.75;13.00;;;;;22.92;41.27;101906.34;6247230;22;45375;-76
2022/06/17 02:56:21;;;;;;;;;11.25;11.00;;;;;22.88;41.49;101902.88;6247249;22;45122;-75
2022/06/17 02:59:05;;;;;;;;;12.00;11.00;;;;;22.84;41.80;101903.94;6219575;22;46942;-76
2022/06/17 03:01:34;;;;;;;;;14.75;13.00;;;;;22.81;41.44;101904.03;6246752;22;45273;-76
2022/06/17 03:04:00;;;;;;;;;12.50;11.00;;;;;22.79;41.86;101906.78;6247173;22;45356;-76
2022/06/17 03:06:32;;;;;;;;;12.25;12.25;;;;;22.76;41.66;101904.19;6246705;22;45180;-76
2022/06/17 03:09:00;;;;;;;;;16.25;15.00;;;;;22.74;41.79;101891.75;6246908;22;45601;-76
2022/06/17 03:11:26;;;;;;;;;17.25;15.00;;;;;22.74;41.92;101894.44;6246953;22;45168;-76
2022/06/17 03:13:57;;;;;;;;;16.25;14.25;;;;;22.74;41.91;101889.06;6219512;22;45188;-77
2022/06/17 03:16:24;;;;;;;;;15.00;14.00;;;;;22.72;42.33;101883.78;6247350;22;45391;-76
2022/06/17 03:18:56;;;;;;;;;16.75;14.50;;;;;22.72;42.56;101889.16;6247089;22;46448;-76
2022/06/17 03:21:23;;;;;;;;;16.50;15.00;;;;;22.67;42.30;101886.63;6245953;22;45327;-76
2022/06/17 03:23:59;;;;;;;;;14.00;14.00;;;;;22.65;42.38;101885.78;6247191;22;45339;-76
2022/06/17 03:26:31;;;;;;;;;13.00;13.00;;;;;22.63;42.20;101881.41;6247048;22;45253;-76
2022/06/17 03:28:58;;;;;;;;;14.00;14.00;;;;;22.64;42.26;101880.47;6219188;22;47708;-76
2022/06/17 03:31:47;;;;;;;;;18.75;16.00;;;;;22.63;42.49;101876.03;6246889;22;45263;-76
2022/06/17 03:34:46;;;;;;;;;18.00;16.50;;;;;22.57;42.76;101858.34;6246977;22;45124;-76
2022/06/17 03:37:19;;;;;;;;;12.50;11.50;;;;;22.54;42.65;101850.41;6243515;22;45721;-76
2022/06/17 03:39:59;;;;;;;;;14.25;14.25;;;;;22.53;43.14;101843.28;6246632;22;46196;-76
2022/06/17 03:42:33;;;;;;;;;16.50;14.25;;;;;22.50;43.02;101853.25;6243511;22;45379;-76
2022/06/17 03:45:09;;;;;;;;;14.50;13.50;;;;;22.47;43.26;101878.38;6219581;22;45456;-75
2022/06/17 03:47:45;;;;;;;;;15.50;15.50;;;;;22.45;43.10;101883.84;6247141;22;45299;-75
2022/06/17 03:50:27;;;;;;;;;17.75;15.75;;;;;22.44;43.25;101887.44;6247206;22;46462;-75
2022/06/17 03:53:04;;;;;;;;;16.75;13.75;;;;;22.44;43.33;101891.91;6246209;22;45411;-75
2022/06/17 03:55:31;;;;;;;;;17.50;16.75;;;;;22.44;43.18;101902.66;6219617;22;45410;-75
2022/06/17 03:58:00;;;;;;;;;14.75;13.25;;;;;22.45;43.50;101912.44;6248366;22;45102;-75
2022/06/17 04:00:36;;;;;;;;;12.00;12.00;;;;;22.44;43.80;101914.25;6220218;22;46523;-74
2022/06/17 04:03:04;;;;;;;;;18.75;18.25;;;;;22.45;43.71;101905.31;6248058;22;45376;-77
2022/06/17 04:05:30;;;;;;;;;14.75;13.50;;;;;22.45;43.27;101902.63;6248534;22;45287;-75
2022/06/17 04:07:56;;;;;;;;;19.25;16.00;;;;;22.46;43.74;101900.81;6220381;22;45494;-75
2022/06/17 04:10:26;;;;;;;;;20.75;15.50;;;;;22.44;43.95;101902.66;6248239;22;46486;-75
2022/06/17 04:12:52;;;;;;;;;16.25;13.25;;;;;22.44;43.72;101894.59;6247762;22;45288;-75
2022/06/17 04:15:43;;;;;;;;;15.00;15.00;;;;;22.43;43.58;101887.50;6248345;22;45386;-75
2022/06/17 04:18:08;;;;;;;;;14.25;13.00;;;;;22.43;44.14;101893.72;6220699;22;45207;-76
2022/06/17 04:20:39;;;;;;;;;14.25;14.25;;;;;22.45;43.79;101899.94;6220305;22;47103;-76
2022/06/17 04:23:13;;;;;;;;;14.25;14.00;;;;;22.45;43.80;101894.56;6248015;22;45659;-75
2022/06/17 04:25:44;;;;;;;;;15.00;14.25;;;;;22.46;43.93;101893.63;6248391;22;45460;-76
2022/06/17 04:28:14;;;;;;;;;17.50;15.75;;;;;22.49;44.00;101894.44;6220123;22;45712;-76
2022/06/17 04:30:46;;;;;;;;;14.75;14.75;;;;;22.49;44.22;101894.44;6247401;22;46156;-76
2022/06/17 04:33:21;;;;;;;;;13.00;13.00;;;;;22.51;43.86;101904.22;6248070;22;45449;-75
2022/06/17 04:35:48;;;;;;;;;13.50;12.25;;;;;22.52;43.85;101903.25;6247987;22;45317;-75
2022/06/17 04:38:13;;;;;;;;;14.75;13.50;;;;;22.53;43.70;101909.50;6219170;22;45485;-75
2022/06/17 04:40:46;;;;;;;;;13.50;12.00;;;;;22.53;44.08;101907.69;6246346;22;47252;-75
2022/06/17 04:43:18;;;;;;;;;15.50;14.75;;;;;22.55;44.11;101908.53;6247731;22;45396;-75
2022/06/17 04:45:53;;;;;;;;;14.50;13.00;;;;;22.58;43.97;101904.84;6247768;22;45196;-75
2022/06/17 04:48:19;;;;;;;;;13.50;13.00;;;;;22.60;43.76;101903.00;6248239;22;45264;-75
2022/06/17 04:50:44;;;;;;;;;11.75;11.75;;;;;22.61;44.14;101899.38;6247774;22;45978;-76
2022/06/17 04:53:10;;;;;;;;;18.75;16.25;;;;;22.64;44.26;101900.16;6247644;22;45178;-74
2022/06/17 04:55:39;;;;;;;;;13.50;13.50;;;;;22.68;43.75;101908.97;6248337;22;45232;-73
2022/06/17 04:58:04;;;;;;;;;14.00;13.00;;;;;22.70;44.23;101904.44;6220243;22;45330;-74
2022/06/17 05:00:30;;;;;;;;;12.50;12.50;;;;;22.73;43.90;101903.44;6247721;22;45590;-74
2022/06/17 05:02:55;;;;;;;;;14.50;14.50;;;;;22.74;43.96;101903.38;6220447;22;45376;-75
2022/06/17 05:05:34;;;;;;;;;16.25;14.00;;;;;22.78;43.97;101906.84;6220744;22;45114;-75
2022/06/17 05:08:03;;;;;;;;;15.00;13.00;;;;;22.79;44.14;101903.22;6218733;22;45233;-74
2022/06/17 05:10:35;;;;;;;;;14.50;13.25;;;;;22.82;43.88;101895.91;6247314;22;46243;-75
2022/06/17 05:13:28;;;;;;;;;15.00;12.75;;;;;22.84;43.91;101896.75;6247640;22;45228;-75
2022/06/17 05:16:05;;;;;;;;;18.25;16.25;;;;;22.87;43.93;101899.31;6220148;22;45266;-82
2022/06/17 05:18:31;;;;;;;;;17.50;16.50;;;;;22.88;43.98;101892.13;6220688;22;45425;-87
2022/06/17 05:20:56;;;;;;;;;16.00;16.00;;;;;22.86;43.67;101889.50;6221348;22;47070;-92
2022/06/17 05:23:22;;;;;;;;;12.00;12.00;;;;;22.87;44.03;101888.56;6247843;22;45338;-93
2022/06/17 05:30:03;;;;;;;;;17.25;15.75;;;;;22.95;44.03;101882.03;6163049;23;45428;-91
2022/06/17 05:33:01;;;;;;;;;;;;;;;;;;;;;
2022/06/17 05:35:35;;;;;;;;;15.25;14.00;;;;;23.03;44.12;101877.28;6154726;23;72343;-80
2022/06/17 05:38:01;;;;;;;;;14.50;13.75;;;;;23.05;43.90;101878.13;6128998;23;45371;-80
2022/06/17 05:40:28;;;;;;;;;15.50;14.50;;;;;23.05;43.83;101873.63;6191908;22;45162;-79
2022/06/17 05:42:54;;;;;;;;;16.25;16.25;;;;;23.08;43.49;101878.88;6220204;22;47277;-81
2022/06/17 05:45:23;;;;;;;;;18.50;17.25;;;;;23.12;44.14;101882.31;6247511;22;45144;-80
2022/06/17 05:47:48;;;;;;;;;16.25;15.25;;;;;23.16;44.00;101869.66;6247401;22;45337;-81
2022/06/17 05:50:18;;;;;;;;;17.25;14.50;;;;;23.21;44.12;101878.41;6247405;22;45324;-82
2022/06/17 05:52:58;;;;;;;;;16.25;15.00;;;;;23.23;44.45;101874.72;6246997;22;45471;-86
2022/06/17 05:55:26;;;;;;;;;16.75;15.00;;;;;23.30;43.79;101878.03;6246462;22;45395;-88
2022/06/17 05:57:52;;;;;;;;;14.25;13.75;;;;;23.37;44.21;101881.38;6247257;22;45471;-86
2022/06/17 06:00:20;;;;;;;;;15.25;13.25;;;;;23.46;43.79;101883.69;6224887;22;45507;-87
2022/06/17 06:02:49;;;;;;;;;16.25;16.25;;;;;23.53;43.62;101883.41;6246948;22;47506;-86
2022/06/17 06:05:21;;;;;;;;;14.75;14.25;;;;;23.57;43.54;101886.81;6249765;22;45302;-85
2022/06/17 06:07:48;;;;;;;;;14.25;14.00;;;;;23.64;43.67;101882.09;6246285;22;45319;-85
2022/06/17 06:10:14;;;;;;;;;12.00;10.50;;;;;23.71;43.32;101878.19;6245717;22;45808;-77
2022/06/17 06:13:00;;;;;;;;;11.25;9.75;;;;;23.80;41.97;101877.88;6247553;22;45246;-76
2022/06/17 06:15:30;;;;;;;;;11.00;9.00;;;;;23.88;41.81;101862.28;6247734;22;45269;-75
2022/06/17 06:17:56;;;;;;;;;9.00;9.00;;;;;23.97;41.36;101869.09;6271649;22;45418;-76
2022/06/17 06:20:22;;;;;;;;;9.00;9.00;;;;;24.02;40.18;101868.91;6244199;22;45334;-75
2022/06/17 06:22:47;;;;;;;;;10.50;9.25;;;;;24.04;40.13;101853.59;6246994;22;45311;-78
2022/06/17 06:25:16;;;;;;;;;8.00;8.00;;;;;24.09;40.01;101851.59;6247825;22;45416;-77
2022/06/17 06:27:42;;;;;;;;;11.25;8.50;;;;;24.15;40.01;101840.53;6245569;22;45328;-77
2022/06/17 06:30:29;;;;;;;;;8.50;8.50;;;;;24.20;39.34;101850.16;6245186;22;45400;-77
2022/06/17 06:33:01;;;;;;;;;10.00;9.25;;;;;24.23;39.35;101849.16;6270550;22;47913;-78
2022/06/17 06:35:37;;;;;;;;;9.25;9.25;;;;;24.30;38.88;101849.75;6246867;22;45310;-78
2022/06/17 06:38:05;;;;;;;;;9.75;8.00;;;;;24.35;39.41;101845.06;6246989;22;45268;-77
2022/06/17 06:40:31;;;;;;;;;8.50;7.75;;;;;24.41;39.24;101845.66;6247066;22;45402;-77
2022/06/17 06:42:58;;;;;;;;;10.00;9.25;;;;;24.49;38.81;101849.88;6246870;22;46081;-77
2022/06/17 06:45:28;;;;;;;;;9.50;8.50;;;;;24.54;38.67;101850.53;6244891;22;45378;-78
2022/06/17 06:47:56;;;;;;;;;8.00;7.33;;;;;24.57;38.33;101853.97;6246916;22;45216;-78
2022/06/17 06:50:26;;;;;;;;;8.00;8.00;;;;;24.62;38.53;101851.97;6246575;22;45286;-77
2022/06/17 06:52:52;;;;;;;;;9.25;9.25;;;;;24.67;38.66;101845.47;6259490;22;46109;-77
2022/06/17 06:55:18;;;;;;;;;9.25;9.25;;;;;24.73;38.88;101843.38;6250413;22;45836;-77
2022/06/17 06:57:51;;;;;;;;;10.25;9.25;;;;;24.80;38.42;101858.31;6250332;22;45260;-77
2022/06/17 07:00:20;;;;;;;;;11.50;11.50;;;;;24.86;37.99;101851.78;6249921;22;45282;-77
2022/06/17 07:02:46;;;;;;;;;12.50;10.00;;;;;24.95;38.30;101855.88;6250060;22;46250;-77
2022/06/17 07:05:12;;;;;;;;;10.25;9.00;;;;;25.06;38.17;101858.94;6249877;22;45382;-78
2022/06/17 07:07:39;;;;;;;;;8.50;8.50;;;;;25.15;38.05;101865.72;6277239;22;45291;-77
2022/06/17 07:10:05;;;;;;;;;10.75;9.00;;;;;25.25;37.62;101865.22;6277683;22;45293;-77
2022/06/17 07:12:30;;;;;;;;;9.25;8.00;;;;;25.36;37.48;101869.25;6277499;22;45673;-77
2022/06/17 07:14:56;;;;;;;;;9.00;7.75;;;;;25.45;37.27;101875.09;6277356;22;45117;-78
2022/06/17 07:17:22;;;;;;;;;11.50;10.50;;;;;25.52;37.04;101867.56;6249599;22;45180;-77
2022/06/17 07:19:47;;;;;;;;;10.00;8.00;;;;;25.63;37.10;101869.72;6277528;22;45137;-77
2022/06/17 07:22:12;;;;;;;;;9.75;8.25;;;;;25.69;36.64;101856.84;6277007;22;46262;-77
2022/06/17 07:24:38;;;;;;;;;9.75;9.75;;;;;25.77;36.84;101858.25;6277666;22;45144;-77
2022/06/17 07:27:03;;;;;;;;;12.00;9.00;;;;;25.83;36.76;101869.63;6277613;22;45619;-77
2022/06/17 07:29:29;;;;;;;;;12.50;10.50;;;;;25.91;36.58;101872.84;6277598;22;45229;-77
2022/06/17 07:31:54;;;;;;;;;9.50;9.00;;;;;25.96;36.10;101870.81;6278330;22;45583;-77
2022/06/17 07:34:20;;;;;;;;;8.75;8.00;;;;;26.03;36.17;101886.66;6251032;22;45194;-78
2022/06/17 07:42:13;;;;;;;;;7.50;7.50;;;;;26.31;36.49;101887.03;6278152;22;45211;-77
2022/06/17 07:44:39;;;;;;;;;8.25;8.25;;;;;26.41;35.79;101898.22;6278121;22;45194;-77
2022/06/17 07:47:05;;;;;;;;;12.00;11.50;;;;;26.48;35.84;101894.22;6278741;22;45292;-77
2022/06/17 07:49:30;;;;;;;;;9.00;8.00;;;;;26.58;35.40;101911.75;6250607;22;45401;-77
2022/06/17 07:51:56;;;;;;;;;9.25;8.25;;;;;26.65;35.26;101915.00;6248789;22;47809;-77
2022/06/17 07:54:21;;;;;;;;;9.00;9.00;;;;;26.73;34.73;101914.59;6276166;22;45345;-77
2022/06/17 07:56:47;;;;;;;;;8.25;7.00;;;;;26.80;34.50;101929.53;6250257;22;45302;-78
2022/06/17 07:59:12;;;;;;;;;8.00;7.00;;;;;26.86;34.46;101928.31;6276191;22;45559;-78
2022/06/17 08:01:38;;;;;;;;;9.50;8.50;;;;;26.92;34.58;101930.69;6275708;22;47359;-77
2022/06/17 08:04:03;;;;;;;;;11.25;9.00;;;;;26.98;34.25;101923.13;6250372;22;45378;-77
2022/06/17 08:06:29;;;;;;;;;8.00;5.50;;;;;27.06;34.06;101925.44;6277852;22;45395;-78
2022/06/17 08:08:55;;;;;;;;;8.50;8.50;;;;;27.13;34.03;101934.97;6250262;22;45390;-77
2022/06/17 08:11:20;;;;;;;;;11.00;9.00;;;;;27.20;33.77;101924.72;6277976;22;46280;-77
2022/06/17 08:13:46;;;;;;;;;9.25;7.75;;;;;27.30;34.07;101930.50;6278270;22;45169;-77
2022/06/17 08:16:13;;;;;;;;;10.50;10.50;;;;;27.39;33.68;101928.13;6250791;22;45216;-77
2022/06/17 08:18:40;;;;;;;;;11.50;10.75;;;;;27.46;33.27;101928.69;6278544;22;45173;-77
2022/06/17 08:21:05;;;;;;;;;8.75;8.00;;;;;27.54;32.68;101920.13;6278171;22;45468;-78
2022/06/17 08:23:31;;;;;;;;;9.50;8.50;;;;;27.62;33.17;101921.44;6250441;22;45436;-77
2022/06/17 08:25:58;;;;;;;;;10.25;7.75;;;;;27.70;32.63;101921.88;6278831;22;45275;-77
2022/06/17 08:28:24;;;;;;;;;8.25;7.75;;;;;27.79;32.68;101911.47;6250579;22;45367;-77
2022/06/17 08:30:53;;;;;;;;;7.67;7.67;;;;;27.80;32.60;101911.44;6276084;22;47183;-77
2022/06/17 08:33:27;;;;;;;;;7.00;7.00;;;;;27.86;32.02;101911.06;6277779;22;45102;-76
2022/06/17 08:35:54;;;;;;;;;8.00;7.50;;;;;27.95;31.67;101909.66;6250311;22;45263;-78
2022/06/17 08:38:32;;;;;;;;;8.00;8.00;;;;;28.07;31.63;101905.38;6276051;22;45383;-78
2022/06/17 08:41:00;;;;;;;;;8.50;7.25;;;;;28.14;31.77;101902.19;6250500;22;46216;-78
2022/06/17 08:43:48;;;;;;;;;9.00;6.75;;;;;28.21;31.67;101891.88;6277457;22;45272;-77
2022/06/17 08:46:41;;;;;;;;;9.50;9.50;;;;;28.30;31.15;101894.03;6276230;22;45199;-78
2022/06/17 08:49:41;;;;;;;;;12.25;9.00;;;;;28.42;31.17;101894.28;6276129;22;45864;-78
2022/06/17 08:52:16;;;;;;;;;9.00;8.00;;;;;28.48;31.31;101881.25;6277587;22;46433;-77
2022/06/17 08:55:19;;;;;;;;;6.00;6.00;;;;;28.61;31.15;101880.50;6278527;22;45291;-77
2022/06/17 08:57:52;;;;;;;;;10.00;7.50;;;;;28.70;30.40;101893.47;6278402;22;45166;-77
2022/06/17 09:00:21;;;;;;;;;9.00;8.00;;;;;28.75;29.77;101896.78;6250000;22;45187;-77
2022/06/17 09:03:06;;;;;;;;;10.00;7.50;;;;;28.83;29.62;101893.59;6275881;22;48152;-77
2022/06/17 09:05:51;;;;;;;;;7.50;7.50;;;;;28.90;29.64;101889.53;6278060;22;45322;-77
2022/06/17 09:08:34;;;;;;;;;7.50;7.50;;;;;28.97;29.38;101897.16;6278409;22;45275;-77
2022/06/17 09:11:18;;;;;;;;;7.50;7.50;;;;;29.01;29.22;101881.59;6275977;22;46142;-77
2022/06/17 09:14:01;;;;;;;;;7.50;7.50;;;;;29.08;29.33;101887.50;6278361;22;45952;-77
2022/06/17 09:16:37;;;;;;;;;6.25;6.25;;;;;29.15;29.50;101887.03;6278522;22;45161;-77
2022/06/17 09:19:03;;;;;;;;;7.00;7.00;;;;;29.23;29.26;101889.25;6276576;22;45263;-77
2022/06/17 09:21:34;;;;;;;;;10.00;10.00;;;;;29.30;29.65;101885.19;6278088;22;45168;-77
2022/06/17 09:24:06;;;;;;;;;8.25;8.00;;;;;29.36;29.49;101878.50;6278679;22;46290;-77
2022/06/17 09:26:41;;;;;;;;;8.50;7.75;;;;;29.42;29.04;101873.50;6278034;22;45354;-77
2022/06/17 09:29:13;;;;;;;;;8.25;7.75;;;;;29.49;29.28;101870.41;6278538;22;45296;-77
2022/06/17 09:31:45;;;;;;;;;7.25;7.25;;;;;29.53;28.71;101872.81;6278364;22;45166;-77
2022/06/17 09:34:13;;;;;;;;;8.33;7.33;;;;;29.55;28.83;101879.00;6278374;22;45441;-77
2022/06/17 09:36:46;;;;;;;;;10.00;8.00;;;;;29.55;28.96;101875.44;6277821;22;45335;-77
2022/06/17 09:39:43;;;;;;;;;8.50;8.50;;;;;29.61;28.46;101873.16;6250267;22;45312;-77
2022/06/17 09:42:33;;;;;;;;;7.75;7.75;;;;;29.68;28.23;101879.13;6278317;22;45262;-77
2022/06/17 09:45:17;;;;;;;;;9.00;7.50;;;;;29.75;28.99;101879.56;6249969;22;46611;-77
2022/06/17 09:47:48;;;;;;;;;9.00;7.25;;;;;29.78;28.70;101877.53;6249588;22;45295;-77
2022/06/17 09:50:19;;;;;;;;;9.25;7.50;;;;;29.83;27.98;101883.53;6275721;22;45150;-77
2022/06/17 09:53:10;;;;;;;;;9.25;9.25;;;;;29.89;28.20;101879.53;6243907;22;45868;-77
2022/06/17 09:55:42;;;;;;;;;6.50;6.50;;;;;29.97;28.05;101879.00;6247064;22;45391;-77
2022/06/17 09:58:36;;;;;;;;;7.25;7.25;;;;;30.00;28.21;101871.53;6244906;22;46076;-77
2022/06/17 10:01:03;;;;;;;;;9.00;9.00;;;;;30.05;28.01;101877.50;6242014;22;45244;-77
2022/06/17 10:03:34;;;;;;;;;8.50;8.50;;;;;30.10;27.92;101864.50;6247203;22;45105;-77
2022/06/17 10:06:05;;;;;;;;;7.33;7.33;;;;;30.18;27.21;101873.94;6246636;22;45341;-78
2022/06/17 10:08:36;;;;;;;;;9.33;8.33;;;;;30.24;27.28;101871.72;6247022;22;45242;-78
2022/06/17 10:11:27;;;;;;;;;6.33;6.33;;;;;30.28;26.97;101870.50;6245244;22;45219;-78
2022/06/17 10:14:20;;;;;;;;;7.50;7.50;;;;;30.36;26.91;101871.84;6244640;22;45473;-78
2022/06/17 10:20:03;;;;;;;;;6.33;6.33;;;;;30.42;26.16;101864.16;6246747;22;45389;-77
2022/06/17 10:23:02;;;;;;;;;7.50;7.50;;;;;30.46;26.06;101862.06;6246610;22;45384;-77
2022/06/17 10:25:30;;;;;;;;;7.25;6.00;;;;;30.50;26.81;101872.63;6246548;22;45138;-78
2022/06/17 10:28:40;;;;;;;;;7.67;6.33;;;;;30.57;26.33;101859.47;6219352;22;47444;-77
2022/06/17 10:31:14;;;;;;;;;8.00;7.50;;;;;30.66;26.17;101857.94;6246627;22;45357;-78
2022/06/17 10:33:40;;;;;;;;;7.67;6.33;;;;;30.70;25.93;101867.63;6244865;22;45303;-77
2022/06/17 10:36:06;;;;;;;;;7.75;7.00;;;;;30.75;26.28;101865.47;6228398;22;45303;-77
2022/06/17 10:38:38;;;;;;;;;7.25;7.25;;;;;30.84;25.71;101870.25;6246400;22;45177;-77
2022/06/17 10:41:05;;;;;;;;;9.25;9.25;;;;;30.89;26.04;101868.09;6244543;22;45335;-78
2022/06/17 10:43:35;;;;;;;;;7.00;7.00;;;;;30.93;25.65;101872.34;6244740;22;45327;-77
2022/06/17 10:46:03;;;;;;;;;11.00;9.00;;;;;30.95;25.97;101874.94;6270593;22;45483;-77
2022/06/17 10:48:40;;;;;;;;;9.00;9.00;;;;;30.94;25.95;101881.34;6246565;22;45430;-78
2022/06/17 10:51:07;;;;;;;;;7.50;6.75;;;;;30.95;25.63;101873.09;6246296;22;45255;-78
2022/06/17 10:53:43;;;;;;;;;8.25;6.75;;;;;30.95;26.71;101872.22;6243798;22;45391;-78
2022/06/17 10:56:17;;;;;;;;;10.75;9.75;;;;;31.02;26.13;101859.91;6270887;22;45438;-77
2022/06/17 10:58:56;;;;;;;;;7.00;6.50;;;;;31.10;26.02;101868.38;6244759;22;47460;-78
2022/06/17 11:01:22;;;;;;;;;8.25;7.50;;;;;31.20;25.89;101874.91;6244157;22;45411;-77
2022/06/17 11:03:48;;;;;;;;;7.75;7.75;;;;;31.30;25.62;101872.38;6246469;22;45464;-78
2022/06/17 11:06:23;;;;;;;;;10.50;9.00;;;;;31.39;25.71;101877.16;6244560;22;45357;-77
2022/06/17 11:08:55;;;;;;;;;7.00;7.00;;;;;31.46;25.96;101872.13;6245866;22;48006;-78
2022/06/17 11:12:02;;;;;;;;;7.00;7.00;;;;;31.54;25.25;101864.28;6247951;22;45217;-78
2022/06/17 11:14:54;;;;;;;;;7.75;7.25;;;;;31.64;25.43;101878.06;6247669;22;45462;-78
2022/06/17 11:17:40;;;;;;;;;7.00;6.50;;;;;31.71;25.19;101873.91;6246411;22;45508;-77
2022/06/17 11:20:14;;;;;;;;;7.33;7.33;;;;;31.79;25.24;101859.72;6248070;22;46247;-78
2022/06/17 11:22:40;;;;;;;;;7.25;7.00;;;;;31.89;24.74;101868.91;6245606;22;45800;-77
2022/06/17 11:25:08;;;;;;;;;8.00;8.00;;;;;31.97;25.21;101855.63;6247919;22;45232;-77
2022/06/17 11:27:41;;;;;;;;;7.25;7.25;;;;;32.03;24.98;101846.97;6248005;22;45196;-77
2022/06/17 11:30:31;;;;;;;;;6.75;6.75;;;;;32.16;24.64;101854.16;6247791;22;45286;-78
2022/06/17 11:32:58;;;;;;;;;8.25;7.25;;;;;32.25;24.48;101848.03;6247851;22;45178;-77
2022/06/17 11:35:42;;;;;;;;;9.50;8.75;;;;;32.35;24.54;101843.59;6246031;22;45242;-77
2022/06/17 11:38:14;;;;;;;;;10.50;8.00;;;;;32.45;24.57;101841.88;6247718;22;45113;-78
2022/06/17 11:40:57;;;;;;;;;6.75;6.75;;;;;32.56;24.29;101835.59;6245601;22;47616;-77
2022/06/17 11:43:43;;;;;;;;;8.75;7.00;;;;;32.65;24.40;101832.13;6247958;22;45294;-77
2022/06/17 11:46:12;;;;;;;;;7.00;7.00;;;;;32.73;24.08;101831.50;6247436;22;45357;-77
2022/06/17 11:48:44;;;;;;;;;6.50;6.50;;;;;32.81;24.03;101823.56;6245918;22;45128;-77
2022/06/17 11:51:15;;;;;;;;;8.50;7.50;;;;;32.90;23.69;101827.41;6249473;22;45624;-77
2022/06/17 11:53:53;;;;;;;;;8.25;6.75;;;;;33.01;24.00;101823.84;6248461;22;45174;-77